Time;durP1;ratioP1;P1;durP2;ratioP2;P2;SDS_P1;SDS_P2;PMS_P1;PMS_P2;Temp;Humidity;BMP_temperature;BMP_pressure;BME280_temperature;BME280_humidity;BME280_pressure;Samples;Min_cycle;Max_cycle;Signal;HPM_P1;HPM_P2
2021/12/28 00:01:34;;;;;;;23.63;14.60;;;1.20;99.90;;;;;;5057640;28;20631;-38
2021/12/28 00:04:01;;;;;;;24.57;14.73;;;1.20;99.90;;;;;;5054675;28;20212;-38
2021/12/28 00:06:27;;;;;;;27.63;14.27;;;1.30;99.90;;;;;;5063877;28;20229;-38
2021/12/28 00:08:54;;;;;;;24.93;14.70;;;1.20;99.90;;;;;;5046455;28;20585;-38
2021/12/28 00:11:21;;;;;;;21.53;14.27;;;1.30;99.90;;;;;;5063272;28;20229;-38
2021/12/28 00:13:48;;;;;;;23.97;14.20;;;1.30;99.90;;;;;;5058968;28;20603;-38
2021/12/28 00:16:34;;;;;;;21.70;15.03;;;1.30;99.90;;;;;;5055620;28;20202;-38
2021/12/28 00:19:03;;;;;;;28.17;14.77;;;1.30;99.90;;;;;;5048152;28;20209;-38
2021/12/28 00:21:30;;;;;;;29.33;15.13;;;1.30;99.90;;;;;;5056596;28;20225;-38
2021/12/28 00:23:58;;;;;;;21.10;13.73;;;1.30;99.90;;;;;;5046453;28;20209;-38
2021/12/28 00:26:24;;;;;;;24.83;16.30;;;1.30;99.90;;;;;;5059736;28;20206;-38
2021/12/28 00:28:51;;;;;;;25.23;14.97;;;1.30;99.90;;;;;;5059757;28;20229;-38
2021/12/28 00:31:22;;;;;;;24.90;15.53;;;1.40;99.90;;;;;;5050269;28;20219;-38
2021/12/28 00:33:48;;;;;;;23.90;14.60;;;1.40;99.90;;;;;;5053985;28;20223;-38
2021/12/28 00:36:16;;;;;;;24.67;15.93;;;1.40;99.90;;;;;;5057671;28;20217;-38
2021/12/28 00:38:43;;;;;;;24.43;14.40;;;1.40;99.90;;;;;;5055587;28;20221;-38
2021/12/28 00:41:11;;;;;;;26.93;14.93;;;1.40;99.90;;;;;;5054713;28;20201;-38
2021/12/28 00:43:39;;;;;;;26.87;15.17;;;1.40;99.90;;;;;;5062206;28;20566;-38
2021/12/28 00:46:07;;;;;;;23.47;15.73;;;1.40;99.90;;;;;;5053691;28;20210;-38
2021/12/28 00:48:35;;;;;;;27.67;15.47;;;1.40;99.90;;;;;;5063425;28;20570;-38
2021/12/28 00:51:05;;;;;;;24.17;14.67;;;1.40;99.90;;;;;;5054516;28;20193;-38
2021/12/28 00:53:32;;;;;;;27.57;14.70;;;1.40;99.90;;;;;;5062861;28;20201;-38
2021/12/28 00:55:59;;;;;;;26.23;15.17;;;1.40;99.90;;;;;;5046154;28;20205;-38
2021/12/28 00:58:26;;;;;;;23.53;14.13;;;1.40;99.90;;;;;;5062230;28;20216;-38
2021/12/28 01:00:53;;;;;;;26.70;15.13;;;1.50;99.90;;;;;;5053873;28;20202;-38
2021/12/28 01:03:20;;;;;;;21.87;13.50;;;1.40;99.90;;;;;;5062023;28;20229;-38
2021/12/28 01:05:49;;;;;;;27.47;15.73;;;1.50;99.90;;;;;;5057984;28;20201;-38
2021/12/28 01:08:16;;;;;;;23.53;14.40;;;1.50;99.90;;;;;;5060624;28;20212;-38
2021/12/28 01:10:46;;;;;;;26.90;15.27;;;1.50;99.90;;;;;;5047995;28;20213;-38
2021/12/28 01:13:14;;;;;;;22.60;14.13;;;1.50;99.90;;;;;;5061297;28;20954;-38
2021/12/28 01:15:41;;;;;;;25.57;14.13;;;1.50;99.90;;;;;;5060773;28;20205;-37
2021/12/28 01:18:08;;;;;;;25.63;14.80;;;1.50;99.90;;;;;;5055032;28;20228;-38
2021/12/28 01:20:36;;;;;;;26.07;15.20;;;1.50;99.90;;;;;;5062798;28;20204;-38
2021/12/28 01:23:04;;;;;;;24.13;14.97;;;1.50;99.90;;;;;;5053867;28;20964;-38
2021/12/28 01:25:31;;;;;;;23.73;14.37;;;1.50;99.90;;;;;;5062811;28;20201;-38
2021/12/28 01:27:57;;;;;;;22.90;15.07;;;1.50;99.90;;;;;;5044954;28;20839;-38
2021/12/28 01:30:26;;;;;;;25.73;15.27;;;1.50;99.90;;;;;;5062633;28;20847;-38
2021/12/28 01:32:53;;;;;;;25.23;14.17;;;1.50;99.90;;;;;;5052553;28;20575;-38
2021/12/28 01:35:21;;;;;;;24.47;14.93;;;1.50;99.90;;;;;;5062692;28;20200;-38
2021/12/28 01:37:48;;;;;;;28.13;15.17;;;1.50;99.90;;;;;;5057286;28;20209;-38
2021/12/28 01:40:20;;;;;;;25.07;14.10;;;1.50;99.90;;;;;;5059602;28;20206;-38
2021/12/28 01:42:57;;;;;;;24.47;14.03;;;1.50;99.90;;;;;;5048487;28;20724;-38
2021/12/28 01:45:32;;;;;;;24.20;14.67;;;1.50;99.90;;;;;;5066033;28;20221;-38
2021/12/28 01:47:59;;;;;;;24.53;14.40;;;1.50;99.90;;;;;;5056318;28;20201;-38
2021/12/28 01:50:25;;;;;;;24.90;14.30;;;1.50;99.90;;;;;;5066641;28;20209;-38
2021/12/28 01:52:52;;;;;;;22.03;13.87;;;1.50;99.90;;;;;;5058118;28;20223;-38
2021/12/28 01:55:21;;;;;;;25.87;15.13;;;1.50;99.90;;;;;;5065756;28;20210;-38
2021/12/28 01:57:48;;;;;;;24.13;15.20;;;1.50;99.90;;;;;;5050233;28;20206;-38
2021/12/28 02:00:15;;;;;;;25.53;15.67;;;1.50;99.90;;;;;;5065114;28;20194;-38
2021/12/28 02:02:42;;;;;;;27.30;15.60;;;1.50;99.90;;;;;;5063622;28;20253;-38
2021/12/28 02:05:09;;;;;;;23.77;14.10;;;1.40;99.90;;;;;;5059009;28;20201;-38
2021/12/28 02:07:36;;;;;;;26.50;13.63;;;1.40;99.90;;;;;;5065723;28;20316;-39
2021/12/28 02:10:04;;;;;;;32.23;16.07;;;1.40;99.90;;;;;;5057026;28;20212;-38
2021/12/28 02:12:32;;;;;;;24.77;14.40;;;1.40;99.90;;;;;;5052938;28;20232;-38
2021/12/28 02:15:05;;;;;;;25.53;14.50;;;1.40;99.90;;;;;;5061539;28;20890;-38
2021/12/28 02:17:32;;;;;;;25.90;14.83;;;1.40;99.90;;;;;;5065591;28;20718;-38
2021/12/28 02:20:06;;;;;;;24.07;14.70;;;1.40;99.90;;;;;;5055681;28;20863;-38
2021/12/28 02:22:32;;;;;;;22.77;13.97;;;1.40;99.90;;;;;;5065376;28;20222;-38
2021/12/28 02:24:59;;;;;;;23.53;14.23;;;1.40;99.90;;;;;;5056866;28;20212;-38
2021/12/28 02:27:28;;;;;;;23.80;14.77;;;1.40;99.90;;;;;;5052007;28;20287;-38
2021/12/28 02:29:55;;;;;;;27.13;15.27;;;1.40;99.90;;;;;;5061740;28;20989;-38
2021/12/28 02:32:26;;;;;;;25.97;15.20;;;1.40;99.90;;;;;;5065681;28;20217;-38
2021/12/28 02:34:53;;;;;;;28.77;15.40;;;1.40;99.90;;;;;;5055015;28;20209;-38
2021/12/28 02:37:22;;;;;;;29.77;15.63;;;1.50;99.90;;;;;;5065491;28;20647;-38
2021/12/28 02:39:49;;;;;;;25.03;15.33;;;1.40;99.90;;;;;;5059188;28;20209;-38
2021/12/28 02:42:16;;;;;;;28.63;16.60;;;1.40;99.90;;;;;;5050146;28;20236;-38
2021/12/28 02:44:43;;;;;;;25.63;15.53;;;1.50;99.90;;;;;;5063286;28;20272;-38
2021/12/28 02:47:09;;;;;;;26.13;15.57;;;1.50;99.90;;;;;;5062711;28;20205;-38
2021/12/28 02:49:37;;;;;;;25.13;14.37;;;1.50;99.90;;;;;;5064962;28;20198;-38
2021/12/28 02:52:09;;;;;;;27.97;15.93;;;1.40;99.90;;;;;;5055280;28;20220;-38
2021/12/28 02:54:38;;;;;;;29.60;15.43;;;1.50;99.90;;;;;;5057613;28;20212;-38
2021/12/28 02:57:05;;;;;;;23.17;14.00;;;1.50;99.90;;;;;;5044224;28;20217;-38
2021/12/28 02:59:32;;;;;;;26.33;15.00;;;1.50;99.90;;;;;;5064553;28;20218;-38
2021/12/28 03:01:58;;;;;;;28.47;16.33;;;1.50;99.90;;;;;;5061084;28;20228;-38
2021/12/28 03:04:27;;;;;;;28.60;15.40;;;1.40;99.90;;;;;;5058035;28;20214;-38
2021/12/28 03:06:54;;;;;;;27.27;15.87;;;1.50;99.90;;;;;;5048409;28;20205;-38
2021/12/28 03:09:22;;;;;;;30.30;16.27;;;1.50;99.90;;;;;;5058268;28;20248;-38
2021/12/28 03:11:50;;;;;;;30.70;16.43;;;1.40;99.90;;;;;;5057095;28;20303;-38
2021/12/28 03:14:17;;;;;;;26.77;15.40;;;1.50;99.90;;;;;;5033862;28;20220;-38
2021/12/28 03:16:44;;;;;;;33.07;15.77;;;1.50;99.90;;;;;;5062112;28;20559;-38
2021/12/28 03:19:11;;;;;;;28.00;16.87;;;1.50;99.90;;;;;;5063048;28;20212;-38
2021/12/28 03:21:38;;;;;;;25.53;15.87;;;1.50;99.90;;;;;;5051176;28;20226;-38
2021/12/28 03:24:06;;;;;;;29.13;15.33;;;1.50;99.90;;;;;;5055448;28;20197;-38
2021/12/28 03:26:33;;;;;;;27.33;15.87;;;1.50;99.90;;;;;;5058068;28;20201;-38
2021/12/28 03:29:01;;;;;;;27.37;15.77;;;1.50;99.90;;;;;;5042668;28;20206;-38
2021/12/28 03:31:28;;;;;;;32.60;17.00;;;1.50;99.90;;;;;;5061556;28;20222;-38
2021/12/28 03:33:56;;;;;;;27.90;15.83;;;1.50;99.90;;;;;;5060164;28;20208;-38
2021/12/28 03:36:25;;;;;;;26.07;15.20;;;1.50;99.90;;;;;;5051878;28;20203;-38
2021/12/28 03:38:52;;;;;;;30.03;16.20;;;1.50;99.90;;;;;;5054456;28;20232;-38
2021/12/28 03:41:21;;;;;;;26.10;15.37;;;1.50;99.90;;;;;;5063971;28;20587;-38
2021/12/28 03:43:49;;;;;;;28.73;15.67;;;1.50;99.90;;;;;;5043804;28;20217;-38
2021/12/28 03:46:18;;;;;;;24.57;14.60;;;1.50;99.90;;;;;;5062680;28;20197;-38
2021/12/28 03:48:44;;;;;;;27.37;15.33;;;1.50;99.90;;;;;;5062457;28;20197;-38
2021/12/28 03:51:12;;;;;;;25.73;15.40;;;1.50;99.90;;;;;;5062194;28;20225;-38
2021/12/28 03:53:39;;;;;;;28.43;16.30;;;1.50;99.90;;;;;;5056806;28;20213;-39
2021/12/28 03:56:08;;;;;;;29.93;16.07;;;1.50;99.90;;;;;;5060817;28;20934;-38
2021/12/28 03:58:35;;;;;;;31.23;16.93;;;1.50;99.90;;;;;;5058425;28;20305;-38
2021/12/28 04:01:03;;;;;;;28.80;17.03;;;1.50;99.90;;;;;;5049261;28;20206;-39
2021/12/28 04:03:31;;;;;;;28.77;15.90;;;1.50;99.90;;;;;;5063427;28;20213;-38
2021/12/28 04:05:59;;;;;;;26.60;15.53;;;1.50;99.90;;;;;;5059260;28;20202;-38
2021/12/28 04:08:28;;;;;;;28.23;15.27;;;1.50;99.90;;;;;;5057698;28;20205;-38
2021/12/28 04:11:02;;;;;;;25.60;16.83;;;1.50;99.90;;;;;;5059534;28;21101;-39
2021/12/28 04:13:28;;;;;;;31.13;16.73;;;1.50;99.90;;;;;;5059092;28;20205;-38
2021/12/28 04:15:55;;;;;;;30.30;16.50;;;1.50;99.90;;;;;;5045773;28;20206;-38
2021/12/28 04:18:22;;;;;;;28.77;16.60;;;1.50;99.90;;;;;;5063492;28;20206;-38
2021/12/28 04:20:50;;;;;;;29.20;17.00;;;1.50;99.90;;;;;;5056384;28;20198;-39
2021/12/28 04:23:17;;;;;;;31.93;16.47;;;1.50;99.90;;;;;;5056474;28;20230;-38
2021/12/28 04:25:44;;;;;;;27.33;16.73;;;1.50;99.90;;;;;;5054674;28;20709;-38
2021/12/28 04:28:10;;;;;;;30.23;17.00;;;1.50;99.90;;;;;;5061611;28;20209;-38
2021/12/28 04:30:38;;;;;;;28.80;16.57;;;1.50;99.90;;;;;;5053328;28;20202;-38
2021/12/28 04:33:04;;;;;;;28.33;16.57;;;1.50;99.90;;;;;;5052983;28;20241;-38
2021/12/28 04:35:31;;;;;;;28.17;15.53;;;1.50;99.90;;;;;;5062850;28;20206;-38
2021/12/28 04:37:59;;;;;;;26.23;16.70;;;1.50;99.90;;;;;;5059061;28;20202;-38
2021/12/28 04:40:25;;;;;;;29.60;17.13;;;1.50;99.90;;;;;;5056850;28;20787;-38
2021/12/28 04:42:52;;;;;;;28.83;16.73;;;1.50;99.90;;;;;;5058804;28;20221;-38
2021/12/28 04:45:20;;;;;;;28.53;16.97;;;1.50;99.90;;;;;;5057924;28;20240;-38
2021/12/28 04:47:46;;;;;;;27.43;16.90;;;1.50;99.90;;;;;;5046747;28;20213;-38
2021/12/28 04:50:14;;;;;;;31.37;16.70;;;1.50;99.90;;;;;;5062297;28;20198;-38
2021/12/28 04:52:41;;;;;;;25.73;16.50;;;1.50;99.90;;;;;;5060831;28;20229;-39
2021/12/28 04:55:13;;;;;;;26.30;16.30;;;1.50;99.90;;;;;;5055018;28;20201;-38
2021/12/28 04:57:40;;;;;;;31.23;17.13;;;1.50;99.90;;;;;;5060772;28;20205;-38
2021/12/28 05:00:11;;;;;;;29.30;16.47;;;1.40;99.90;;;;;;5061106;28;20220;-38
2021/12/28 05:02:38;;;;;;;31.23;17.17;;;1.40;99.90;;;;;;5043583;28;20618;-38
2021/12/28 05:05:05;;;;;;;27.57;17.10;;;1.40;99.90;;;;;;5059725;28;20199;-38
2021/12/28 05:07:32;;;;;;;30.10;17.10;;;1.40;99.90;;;;;;5062786;28;20208;-38
2021/12/28 05:09:59;;;;;;;30.40;16.40;;;1.40;99.90;;;;;;5052502;28;20198;-39
2021/12/28 05:12:27;;;;;;;30.37;16.63;;;1.40;99.90;;;;;;5062740;28;20225;-38
2021/12/28 05:14:54;;;;;;;27.00;16.90;;;1.40;99.90;;;;;;5058581;28;20293;-38
2021/12/28 05:17:20;;;;;;;30.77;16.93;;;1.40;99.90;;;;;;5056348;28;20701;-38
2021/12/28 05:19:47;;;;;;;34.67;17.40;;;1.40;99.90;;;;;;5046583;28;20297;-39
2021/12/28 05:22:14;;;;;;;32.90;18.47;;;1.40;99.90;;;;;;5061615;28;20217;-38
2021/12/28 05:24:40;;;;;;;34.10;19.10;;;1.40;99.90;;;;;;5055013;28;20205;-38
2021/12/28 05:27:07;;;;;;;30.47;18.00;;;1.40;99.90;;;;;;5060239;28;20201;-38
2021/12/28 05:29:35;;;;;;;28.47;17.33;;;1.40;99.90;;;;;;5062186;28;20205;-38
2021/12/28 05:32:02;;;;;;;31.27;18.70;;;1.40;99.90;;;;;;5054618;28;21220;-38
2021/12/28 05:34:29;;;;;;;29.43;17.80;;;1.40;99.90;;;;;;5049004;28;20210;-38
2021/12/28 05:36:56;;;;;;;29.23;17.47;;;1.40;99.90;;;;;;5058156;28;20255;-39
2021/12/28 05:39:22;;;;;;;32.07;18.13;;;1.40;99.90;;;;;;5062127;28;20921;-38
2021/12/28 05:41:49;;;;;;;28.50;16.80;;;1.40;99.90;;;;;;5052500;28;20226;-38
2021/12/28 05:44:17;;;;;;;29.60;18.50;;;1.50;99.90;;;;;;5062670;28;20527;-38
2021/12/28 05:46:46;;;;;;;29.93;18.37;;;1.50;99.90;;;;;;5056781;28;20209;-38
2021/12/28 05:49:12;;;;;;;31.63;17.90;;;1.50;99.90;;;;;;5047350;28;20217;-38
2021/12/28 05:51:39;;;;;;;29.60;17.40;;;1.50;99.90;;;;;;5060081;28;20221;-38
2021/12/28 05:54:05;;;;;;;30.57;17.17;;;1.50;99.90;;;;;;5060413;28;20200;-38
2021/12/28 05:56:32;;;;;;;38.83;19.13;;;1.50;99.90;;;;;;5056218;28;20211;-38
2021/12/28 05:58:59;;;;;;;30.50;17.80;;;1.50;99.90;;;;;;5058129;28;20267;-38
2021/12/28 06:01:26;;;;;;;29.77;18.60;;;1.50;99.90;;;;;;5062433;28;20239;-38
2021/12/28 06:03:54;;;;;;;33.33;19.23;;;1.60;99.90;;;;;;5040184;28;21585;-38
2021/12/28 06:06:20;;;;;;;32.47;18.70;;;1.60;99.90;;;;;;5062080;28;20202;-38
2021/12/28 06:08:47;;;;;;;29.80;18.03;;;1.50;99.90;;;;;;5059042;28;20195;-38
2021/12/28 06:11:14;;;;;;;29.53;16.53;;;1.60;99.90;;;;;;5055119;28;20214;-38
2021/12/28 06:13:41;;;;;;;31.97;17.83;;;1.60;99.90;;;;;;5060337;28;20248;-38
2021/12/28 06:16:08;;;;;;;30.17;17.57;;;1.60;99.90;;;;;;5059887;28;20259;-38
2021/12/28 06:18:35;;;;;;;31.83;18.40;;;1.60;99.90;;;;;;5057090;28;20205;-38
2021/12/28 06:21:03;;;;;;;27.17;18.33;;;1.60;99.90;;;;;;5046364;28;20300;-38
2021/12/28 06:23:30;;;;;;;26.97;17.53;;;1.60;99.90;;;;;;5061890;28;20660;-41
2021/12/28 06:25:57;;;;;;;29.87;17.80;;;1.60;99.90;;;;;;5051837;28;20931;-38
2021/12/28 06:28:23;;;;;;;29.77;18.23;;;1.60;99.90;;;;;;5062741;28;20206;-38
2021/12/28 06:30:50;;;;;;;32.23;18.60;;;1.60;99.90;;;;;;5061994;28;20209;-38
2021/12/28 06:33:17;;;;;;;29.50;18.17;;;1.60;99.90;;;;;;5060622;28;20213;-38
2021/12/28 06:35:44;;;;;;;27.87;16.87;;;1.60;99.90;;;;;;5055173;28;20258;-38
2021/12/28 06:38:12;;;;;;;35.10;18.97;;;1.60;99.90;;;;;;5060588;28;20198;-39
2021/12/28 06:40:40;;;;;;;29.17;16.93;;;1.60;99.90;;;;;;5062380;28;20229;-38
2021/12/28 06:43:07;;;;;;;31.43;17.73;;;1.60;99.90;;;;;;5058922;28;20218;-38
2021/12/28 06:45:34;;;;;;;33.27;17.47;;;1.60;99.90;;;;;;5064431;28;20602;-38
2021/12/28 06:48:01;;;;;;;33.33;18.50;;;1.50;99.90;;;;;;5057127;28;20214;-38
2021/12/28 06:50:28;;;;;;;29.50;18.03;;;1.60;99.90;;;;;;5065549;28;20206;-38
2021/12/28 06:52:54;;;;;;;33.80;18.60;;;1.50;99.90;;;;;;5047947;28;20850;-38
2021/12/28 06:55:22;;;;;;;31.77;18.73;;;1.50;99.90;;;;;;5065193;28;20206;-38
2021/12/28 06:57:49;;;;;;;35.13;18.27;;;1.50;99.90;;;;;;5054907;28;20639;-38
2021/12/28 07:00:19;;;;;;;33.30;17.70;;;1.50;99.90;;;;;;5065064;28;20226;-38
2021/12/28 07:02:46;;;;;;;30.67;18.17;;;1.50;99.90;;;;;;5056369;28;20222;-38
2021/12/28 07:05:13;;;;;;;33.33;19.13;;;1.50;99.90;;;;;;5059296;28;20211;-39
2021/12/28 07:07:41;;;;;;;34.40;19.23;;;1.50;99.90;;;;;;5050233;28;20208;-38
2021/12/28 07:10:10;;;;;;;29.83;18.53;;;1.50;99.90;;;;;;5062920;28;20200;-38
2021/12/28 07:12:38;;;;;;;34.67;20.83;;;1.50;99.90;;;;;;5063515;28;20241;-38
2021/12/28 07:15:06;;;;;;;34.03;18.17;;;1.50;99.90;;;;;;5057895;28;20202;-39
2021/12/28 07:17:33;;;;;;;31.53;18.47;;;1.50;99.90;;;;;;5064009;28;20207;-38
2021/12/28 07:20:00;;;;;;;31.23;18.50;;;1.50;99.90;;;;;;5056486;28;20316;-48
2021/12/28 07:22:27;;;;;;;34.07;19.37;;;1.50;99.90;;;;;;5040624;28;20872;-48
2021/12/28 07:24:53;;;;;;;33.13;18.97;;;1.50;99.90;;;;;;5064346;28;20205;-48
2021/12/28 07:27:20;;;;;;;30.80;19.60;;;1.50;99.90;;;;;;5054318;28;20194;-48
2021/12/28 07:29:48;;;;;;;35.73;20.07;;;1.50;99.90;;;;;;5055319;28;20241;-48
2021/12/28 07:32:17;;;;;;;33.00;18.77;;;1.50;99.90;;;;;;5058925;28;20245;-47
2021/12/28 07:34:43;;;;;;;32.27;20.70;;;1.50;99.90;;;;;;5058712;28;20213;-48
2021/12/28 07:37:10;;;;;;;34.73;20.37;;;1.50;99.90;;;;;;5061106;28;20198;-48
2021/12/28 07:39:37;;;;;;;35.57;19.87;;;1.50;99.90;;;;;;5048973;28;20304;-48
2021/12/28 07:42:04;;;;;;;37.20;18.70;;;1.50;99.90;;;;;;5060136;28;20227;-48
2021/12/28 07:44:31;;;;;;;32.57;19.73;;;1.50;99.90;;;;;;5048521;28;20206;-48
2021/12/28 07:46:59;;;;;;;33.63;20.73;;;1.50;99.90;;;;;;5058190;28;20200;-48
2021/12/28 07:49:26;;;;;;;39.93;20.20;;;1.50;99.90;;;;;;5051896;28;20280;-48
2021/12/28 07:51:53;;;;;;;31.73;20.47;;;1.50;99.90;;;;;;5038212;28;20233;-48
2021/12/28 07:54:19;;;;;;;33.10;19.37;;;1.50;99.90;;;;;;5037512;28;20209;-48
2021/12/28 07:56:46;;;;;;;34.93;21.00;;;1.50;99.90;;;;;;5062807;28;20207;-48
2021/12/28 07:59:13;;;;;;;35.13;19.80;;;1.50;99.90;;;;;;5047170;28;20697;-48
2021/12/28 08:01:39;;;;;;;32.87;20.53;;;1.50;99.90;;;;;;5057644;28;20218;-48
2021/12/28 08:04:07;;;;;;;34.10;18.43;;;1.50;99.90;;;;;;5055717;28;20217;-48
2021/12/28 08:06:34;;;;;;;32.23;20.07;;;1.50;99.90;;;;;;5054613;28;20213;-48
2021/12/28 08:09:01;;;;;;;35.63;20.00;;;1.50;99.90;;;;;;5056329;28;20694;-48
2021/12/28 08:11:28;;;;;;;32.00;19.87;;;1.50;99.90;;;;;;5044956;28;20229;-48
2021/12/28 08:13:55;;;;;;;38.20;21.23;;;1.50;99.90;;;;;;5059913;28;20540;-48
2021/12/28 08:16:22;;;;;;;36.27;21.07;;;1.50;99.90;;;;;;5045538;28;20206;-48
2021/12/28 08:18:49;;;;;;;38.87;21.00;;;1.50;99.90;;;;;;5053964;28;20218;-48
2021/12/28 08:21:17;;;;;;;35.10;21.50;;;1.50;99.90;;;;;;5052693;28;20214;-48
2021/12/28 08:23:44;;;;;;;36.93;21.77;;;1.50;99.90;;;;;;5062501;28;20706;-48
2021/12/28 08:26:10;;;;;;;38.50;22.27;;;1.50;99.90;;;;;;5047463;28;20211;-48
2021/12/28 08:28:37;;;;;;;37.87;21.60;;;1.50;99.90;;;;;;5055014;28;20202;-48
2021/12/28 08:31:04;;;;;;;40.57;22.63;;;1.50;99.90;;;;;;5053069;28;20206;-48
2021/12/28 08:33:30;;;;;;;38.93;20.03;;;1.50;99.90;;;;;;5057568;28;20888;-48
2021/12/28 08:35:58;;;;;;;35.10;21.53;;;1.50;99.90;;;;;;5061847;28;20206;-48
2021/12/28 08:38:26;;;;;;;38.03;21.50;;;1.60;99.90;;;;;;5054784;28;20201;-48
2021/12/28 08:40:53;;;;;;;39.80;22.37;;;1.60;99.90;;;;;;5060267;28;20230;-48
2021/12/28 08:43:21;;;;;;;37.10;21.90;;;1.60;99.90;;;;;;5046426;28;20213;-48
2021/12/28 08:45:47;;;;;;;38.40;23.33;;;1.60;99.90;;;;;;5056775;28;20200;-48
2021/12/28 08:48:14;;;;;;;39.93;22.13;;;1.60;99.90;;;;;;5050908;28;20221;-49
2021/12/28 08:50:42;;;;;;;41.53;23.27;;;1.70;99.90;;;;;;5062951;28;20212;-48
2021/12/28 08:53:10;;;;;;;41.03;23.67;;;1.70;99.90;;;;;;5054929;28;20222;-48
2021/12/28 08:55:39;;;;;;;40.20;22.00;;;1.70;99.90;;;;;;5052199;28;20277;-48
2021/12/28 08:58:05;;;;;;;40.17;21.63;;;1.70;99.90;;;;;;5041420;28;20215;-48
2021/12/28 09:00:35;;;;;;;40.20;23.53;;;1.70;99.90;;;;;;5051714;28;20214;-48
2021/12/28 09:03:03;;;;;;;45.13;24.30;;;1.70;99.90;;;;;;5047907;28;20230;-48
2021/12/28 09:05:31;;;;;;;38.20;22.37;;;1.70;99.90;;;;;;5059703;28;20274;-48
2021/12/28 09:08:00;;;;;;;40.33;23.63;;;1.70;99.90;;;;;;5059199;28;20666;-48
2021/12/28 09:10:27;;;;;;;44.37;23.27;;;1.70;99.90;;;;;;5053438;28;20194;-48
2021/12/28 09:12:57;;;;;;;43.10;23.83;;;1.80;99.90;;;;;;5040553;28;20226;-48
2021/12/28 09:15:24;;;;;;;42.17;23.30;;;1.80;99.90;;;;;;5056283;28;20213;-45
2021/12/28 09:17:52;;;;;;;45.40;23.47;;;1.80;99.90;;;;;;5034311;28;20217;-46
2021/12/28 09:20:23;;;;;;;42.80;22.57;;;1.90;99.90;;;;;;5057455;28;20223;-43
2021/12/28 09:22:51;;;;;;;40.83;22.53;;;1.90;99.90;;;;;;5057361;28;20220;-43
2021/12/28 09:25:18;;;;;;;42.10;24.47;;;1.90;99.90;;;;;;5051191;28;20233;-44
2021/12/28 09:27:45;;;;;;;42.43;22.70;;;1.90;99.90;;;;;;5038086;28;20315;-43
2021/12/28 09:30:14;;;;;;;45.17;22.57;;;1.90;99.90;;;;;;5060054;28;20686;-44
2021/12/28 09:32:41;;;;;;;44.97;23.00;;;1.90;99.90;;;;;;5056279;28;20218;-43
2021/12/28 09:35:10;;;;;;;43.97;22.73;;;1.90;99.90;;;;;;5052673;28;20202;-43
2021/12/28 09:37:37;;;;;;;43.00;22.43;;;1.90;99.90;;;;;;5058002;28;20912;-44
2021/12/28 09:40:07;;;;;;;41.47;22.70;;;1.90;99.90;;;;;;5051204;28;20221;-44
2021/12/28 09:42:33;;;;;;;42.67;23.17;;;1.90;99.90;;;;;;5057126;28;20226;-43
2021/12/28 09:45:00;;;;;;;43.27;22.97;;;1.90;99.90;;;;;;5049172;28;20211;-45
2021/12/28 09:47:28;;;;;;;41.87;21.80;;;2.00;99.90;;;;;;5048055;28;20210;-44
2021/12/28 09:49:54;;;;;;;41.90;23.83;;;2.00;99.90;;;;;;5050457;28;20205;-43
2021/12/28 09:52:21;;;;;;;38.77;21.47;;;2.00;99.90;;;;;;5051213;28;21686;-45
2021/12/28 09:54:48;;;;;;;42.70;21.53;;;2.00;99.90;;;;;;5056695;28;20206;-45
2021/12/28 09:57:15;;;;;;;40.53;22.73;;;2.00;99.90;;;;;;5053994;28;20670;-43
2021/12/28 09:59:42;;;;;;;42.20;22.47;;;2.00;99.90;;;;;;5046964;28;20226;-42
2021/12/28 10:02:10;;;;;;;47.93;24.80;;;2.00;99.90;;;;;;5056870;28;20224;-43
2021/12/28 10:04:52;;;;;;;46.90;23.40;;;2.00;99.90;;;;;;5054524;28;20205;-48
2021/12/28 10:07:20;;;;;;;38.67;22.23;;;2.10;99.90;;;;;;5049193;28;21134;-44
2021/12/28 10:09:48;;;;;;;46.70;22.73;;;2.10;99.90;;;;;;5059581;28;20214;-45
2021/12/28 10:12:27;;;;;;;49.80;25.03;;;2.10;99.90;;;;;;5056124;28;20729;-43
2021/12/28 10:14:55;;;;;;;42.17;22.80;;;2.10;99.90;;;;;;5059725;28;20263;-47
2021/12/28 10:17:25;;;;;;;46.33;24.43;;;2.10;99.90;;;;;;5045563;28;20291;-47
2021/12/28 10:19:53;;;;;;;48.70;24.03;;;2.10;99.90;;;;;;5062730;28;20198;-45
2021/12/28 10:22:27;;;;;;;46.27;23.80;;;2.10;99.90;;;;;;5052036;28;20874;-49
2021/12/28 10:24:57;;;;;;;47.27;24.17;;;2.10;99.90;;;;;;5051737;28;20793;-46
2021/12/28 10:27:25;;;;;;;49.33;24.27;;;2.10;99.90;;;;;;5057399;28;20203;-45
2021/12/28 10:29:53;;;;;;;45.00;23.30;;;2.10;99.90;;;;;;5064654;28;20233;-44
2021/12/28 10:32:22;;;;;;;48.00;24.00;;;2.10;99.90;;;;;;5045237;28;20217;-50
2021/12/28 10:34:50;;;;;;;45.17;22.50;;;2.10;99.90;;;;;;5065419;28;20202;-49
2021/12/28 10:37:22;;;;;;;42.47;22.50;;;2.10;99.90;;;;;;5046280;28;20213;-46
2021/12/28 10:39:54;;;;;;;41.63;24.50;;;2.10;99.90;;;;;;5055608;28;20546;-44
2021/12/28 10:42:43;;;;;;;52.03;23.73;;;2.10;99.90;;;;;;5055707;28;20229;-44
2021/12/28 10:45:12;;;;;;;51.23;24.37;;;2.20;99.90;;;;;;5051368;28;20202;-47
2021/12/28 10:47:39;;;;;;;50.33;24.17;;;2.20;99.90;;;;;;5063824;28;20206;-45
2021/12/28 10:50:22;;;;;;;52.27;26.67;;;2.20;99.90;;;;;;5063322;28;20256;-45
2021/12/28 10:52:51;;;;;;;46.87;24.17;;;2.30;99.90;;;;;;5050654;28;20226;-47
2021/12/28 10:55:21;;;;;;;50.33;25.53;;;2.30;99.90;;;;;;5048723;28;20264;-44
2021/12/28 10:57:48;;;;;;;45.67;23.53;;;2.30;99.90;;;;;;5064329;28;20606;-45
2021/12/28 11:00:25;;;;;;;47.27;24.97;;;2.30;99.90;;;;;;5022181;28;20588;-44
2021/12/28 11:02:52;;;;;;;48.67;24.17;;;2.40;99.90;;;;;;5059281;28;20548;-44
2021/12/28 11:05:32;;;;;;;50.23;25.43;;;2.40;99.90;;;;;;5061059;28;20283;-44
2021/12/28 11:08:01;;;;;;;55.53;26.80;;;2.40;99.90;;;;;;5055641;28;20210;-45
2021/12/28 11:10:28;;;;;;;48.83;24.93;;;2.40;99.90;;;;;;5057346;28;20206;-44
2021/12/28 11:12:55;;;;;;;50.70;25.17;;;2.40;99.90;;;;;;5064340;28;20225;-44
2021/12/28 11:15:22;;;;;;;48.27;24.77;;;2.40;99.90;;;;;;5055527;28;20201;-48
2021/12/28 11:17:49;;;;;;;45.90;25.27;;;2.40;99.90;;;;;;5050106;28;20341;-44
2021/12/28 11:20:16;;;;;;;51.00;25.00;;;2.40;99.90;;;;;;5055309;28;20250;-44
2021/12/28 11:23:10;;;;;;;53.40;25.80;;;2.40;99.90;;;;;;5064704;28;20233;-44
2021/12/28 11:25:37;;;;;;;48.07;25.07;;;2.40;99.90;;;;;;5062357;28;20203;-45
2021/12/28 11:28:16;;;;;;;50.47;26.03;;;2.40;99.90;;;;;;5057696;28;20198;-45
2021/12/28 11:31:04;;;;;;;48.33;26.40;;;2.40;99.90;;;;;;5059996;28;20210;-46
2021/12/28 11:33:57;;;;;;;51.10;26.33;;;2.40;99.90;;;;;;5057037;28;20256;-44
2021/12/28 11:36:26;;;;;;;51.00;25.80;;;2.40;99.90;;;;;;5055707;28;20277;-49
2021/12/28 11:38:56;;;;;;;56.57;27.30;;;2.40;99.90;;;;;;5055882;28;20214;-47
2021/12/28 11:41:25;;;;;;;54.57;26.60;;;2.40;99.90;;;;;;5051386;28;20227;-48
2021/12/28 11:43:52;;;;;;;45.07;23.80;;;2.40;99.90;;;;;;5055512;28;20203;-49
2021/12/28 11:46:19;;;;;;;50.90;26.10;;;2.40;99.90;;;;;;5050721;28;20218;-47
2021/12/28 11:48:46;;;;;;;51.10;25.87;;;2.40;99.90;;;;;;5050928;28;20584;-47
2021/12/28 11:51:13;;;;;;;56.20;27.70;;;2.40;99.90;;;;;;5058819;28;20195;-47
2021/12/28 11:53:45;;;;;;;49.93;25.20;;;2.40;99.90;;;;;;5058153;28;20199;-51
2021/12/28 11:56:16;;;;;;;49.50;26.33;;;2.40;99.90;;;;;;5050816;28;20198;-47
2021/12/28 11:59:08;;;;;;;50.17;26.20;;;2.40;99.90;;;;;;5059195;28;20203;-53
2021/12/28 12:01:38;;;;;;;48.60;24.90;;;2.40;99.90;;;;;;5040501;28;20306;-48
2021/12/28 12:04:25;;;;;;;53.97;26.10;;;2.50;99.90;;;;;;5037059;28;20215;-48
2021/12/28 12:07:01;;;;;;;55.00;26.33;;;2.50;99.90;;;;;;5046710;28;20203;-51
2021/12/28 12:09:28;;;;;;;49.50;23.13;;;2.50;99.90;;;;;;5052836;28;20194;-50
2021/12/28 12:12:11;;;;;;;48.03;23.70;;;2.50;99.90;;;;;;5046216;28;20218;-47
2021/12/28 12:15:09;;;;;;;50.20;24.97;;;2.50;99.90;;;;;;5057246;28;20194;-47
2021/12/28 12:17:39;;;;;;;48.57;25.13;;;2.50;99.90;;;;;;5060331;28;20627;-52
2021/12/28 12:20:08;;;;;;;55.13;26.93;;;2.50;99.90;;;;;;5044025;28;20461;-49
2021/12/28 12:22:38;;;;;;;56.23;26.70;;;2.50;99.90;;;;;;5063135;28;20234;-48
2021/12/28 12:25:08;;;;;;;54.33;26.63;;;2.50;99.90;;;;;;5052528;28;20208;-51
2021/12/28 12:27:46;;;;;;;56.50;29.17;;;2.50;99.90;;;;;;5057327;28;20210;-50
2021/12/28 12:30:44;;;;;;;47.70;25.57;;;2.50;99.90;;;;;;5057526;28;20207;-50
2021/12/28 12:33:12;;;;;;;53.60;27.20;;;2.50;99.90;;;;;;5053773;28;20219;-47
2021/12/28 12:35:48;;;;;;;56.07;27.13;;;2.50;99.90;;;;;;5043177;28;20213;-50
2021/12/28 12:38:35;;;;;;;52.03;28.30;;;2.50;99.90;;;;;;5062409;28;20206;-47
2021/12/28 12:41:07;;;;;;;55.23;26.93;;;2.60;99.90;;;;;;5046360;28;20347;-48
2021/12/28 12:43:47;;;;;;;52.23;26.80;;;2.50;99.90;;;;;;5056698;28;20916;-51